createdAt,value
2019-05-26T00:00:38.061Z,0
2019-05-26T00:01:38.094Z,0
2019-05-26T00:02:38.170Z,0
2019-05-26T00:03:38.198Z,0
2019-05-26T00:04:38.199Z,0
2019-05-26T00:05:38.241Z,0
2019-05-26T00:06:38.236Z,0
2019-05-26T00:07:38.326Z,0
2019-05-26T00:08:38.405Z,0
2019-05-26T00:09:38.442Z,0
2019-05-26T00:10:38.428Z,0
2019-05-26T00:11:38.428Z,0
2019-05-26T00:12:38.445Z,0
2019-05-26T00:13:38.585Z,0
2019-05-26T00:14:38.593Z,0
2019-05-26T00:15:38.609Z,0
2019-05-26T00:16:38.630Z,0
2019-05-26T00:17:38.672Z,0
2019-05-26T00:18:38.687Z,0
2019-05-26T00:19:38.693Z,0
2019-05-26T00:20:38.753Z,0
2019-05-26T00:21:38.785Z,0
2019-05-26T00:22:38.790Z,0
2019-05-26T00:23:38.820Z,0
2019-05-26T00:24:38.869Z,0
2019-05-26T00:25:38.879Z,0
2019-05-26T00:26:38.931Z,0
2019-05-26T00:27:38.982Z,0
2019-05-26T00:28:39.055Z,0
2019-05-26T00:29:39.111Z,0
2019-05-26T00:30:39.137Z,0
2019-05-26T00:31:39.156Z,0
2019-05-26T00:32:39.185Z,0
2019-05-26T00:33:39.183Z,0
2019-05-26T00:34:39.223Z,0
2019-05-26T00:35:39.233Z,0
2019-05-26T00:36:39.252Z,0
2019-05-26T00:37:48.903Z,0
2019-05-26T00:38:39.436Z,0
2019-05-26T00:39:39.514Z,0
2019-05-26T00:40:39.483Z,0
2019-05-26T00:41:39.542Z,0
2019-05-26T00:42:39.582Z,0
2019-05-26T00:43:39.615Z,0
2019-05-26T00:44:39.662Z,0
2019-05-26T00:45:39.725Z,0
2019-05-26T00:46:39.752Z,0
2019-05-26T00:47:39.756Z,0
2019-05-26T00:48:39.788Z,0
2019-05-26T00:49:39.946Z,0
2019-05-26T00:50:39.960Z,0
2019-05-26T00:51:40.018Z,0
2019-05-26T00:52:40.139Z,0
2019-05-26T00:53:40.149Z,0
2019-05-26T00:54:40.115Z,0
2019-05-26T00:55:40.148Z,0
2019-05-26T00:56:40.206Z,0
2019-05-26T00:57:40.352Z,0
2019-05-26T00:58:40.545Z,0
2019-05-26T00:59:40.468Z,0
2019-05-26T01:00:40.586Z,0
2019-05-26T01:01:40.602Z,0
2019-05-26T01:02:40.687Z,0
2019-05-26T01:03:40.808Z,0
2019-05-26T01:04:40.791Z,0
2019-05-26T01:05:40.838Z,0
2019-05-26T01:06:40.944Z,0
2019-05-26T01:07:40.955Z,0
2019-05-26T01:08:41.002Z,0
2019-05-26T01:09:41.160Z,0
2019-05-26T01:10:41.101Z,0
2019-05-26T01:11:41.178Z,0
2019-05-26T01:12:41.210Z,0
2019-05-26T01:13:41.234Z,0
2019-05-26T01:14:41.432Z,0
2019-05-26T01:15:41.596Z,0
2019-05-26T01:16:41.525Z,0
2019-05-26T01:17:41.521Z,0
2019-05-26T01:18:41.578Z,0
2019-05-26T01:19:41.757Z,0
2019-05-26T01:20:41.722Z,0
2019-05-26T01:21:41.729Z,0
2019-05-26T01:22:41.820Z,0
2019-05-26T01:23:41.895Z,0
2019-05-26T01:24:41.905Z,0
2019-05-26T01:25:41.951Z,0
2019-05-26T01:26:42.040Z,0
2019-05-26T01:27:42.105Z,0
2019-05-26T01:28:42.175Z,0
2019-05-26T01:29:42.196Z,0
2019-05-26T01:30:42.310Z,0
2019-05-26T01:31:42.376Z,0
2019-05-26T01:32:42.350Z,0
2019-05-26T01:33:42.348Z,0
2019-05-26T01:34:42.370Z,0
2019-05-26T01:35:42.456Z,0
2019-05-26T01:36:42.492Z,0
2019-05-26T01:37:42.517Z,0
2019-05-26T01:38:42.570Z,0
2019-05-26T01:39:42.658Z,0
2019-05-26T01:40:42.837Z,0
2019-05-26T01:41:42.962Z,0
2019-05-26T01:42:43.085Z,0
2019-05-26T01:43:43.159Z,0
2019-05-26T01:44:43.183Z,0
2019-05-26T01:45:43.227Z,0
2019-05-26T01:46:43.281Z,0
2019-05-26T01:47:43.324Z,0
2019-05-26T01:48:43.387Z,0
2019-05-26T01:49:43.506Z,0
2019-05-26T01:50:43.600Z,0
2019-05-26T01:51:43.643Z,0
2019-05-26T01:52:43.763Z,0
2019-05-26T01:53:43.881Z,0
2019-05-26T01:54:43.983Z,0
2019-05-26T01:55:44.074Z,0
2019-05-26T01:56:44.035Z,0
2019-05-26T01:57:44.177Z,0
2019-05-26T01:58:44.369Z,0
2019-05-26T01:59:44.471Z,0
2019-05-26T02:00:45.496Z,0
2019-05-26T02:01:44.583Z,0
2019-05-26T02:02:44.595Z,0
2019-05-26T02:03:44.705Z,0
2019-05-26T02:04:44.903Z,0
2019-05-26T02:05:44.947Z,0
2019-05-26T02:06:44.988Z,0
2019-05-26T02:07:45.065Z,0
2019-05-26T02:08:45.046Z,0
2019-05-26T02:09:45.205Z,0
2019-05-26T02:10:45.218Z,0
2019-05-26T02:11:45.357Z,0
2019-05-26T02:12:45.231Z,0
2019-05-26T02:13:45.189Z,0
2019-05-26T02:14:45.164Z,0
2019-05-26T02:15:45.302Z,0
2019-05-26T02:16:46.290Z,0
2019-05-26T02:17:45.568Z,0
2019-05-26T02:18:45.584Z,0
2019-05-26T02:19:45.641Z,0
2019-05-26T02:20:45.687Z,0
2019-05-26T02:21:45.728Z,0
2019-05-26T02:22:45.885Z,0
2019-05-26T02:23:45.925Z,0
2019-05-26T02:24:45.905Z,0
2019-05-26T02:25:45.923Z,0
2019-05-26T02:26:45.918Z,0
2019-05-26T02:27:45.987Z,0
2019-05-26T02:28:46.003Z,0
2019-05-26T02:29:46.110Z,0
2019-05-26T02:30:46.199Z,0
2019-05-26T02:31:46.345Z,0
2019-05-26T02:32:47.669Z,0
2019-05-26T02:33:46.484Z,0
2019-05-26T02:34:46.645Z,0
2019-05-26T02:35:46.705Z,0
2019-05-26T02:36:46.746Z,0
2019-05-26T02:37:47.041Z,0
2019-05-26T02:39:00.711Z,0
2019-05-26T02:39:48.074Z,0
2019-05-26T02:40:47.073Z,0
2019-05-26T02:41:47.122Z,0
2019-05-26T02:42:48.247Z,0
2019-05-26T02:43:47.336Z,0
2019-05-26T02:44:47.378Z,0
2019-05-26T02:45:47.435Z,0
2019-05-26T02:46:47.497Z,0
2019-05-26T02:47:47.552Z,0
2019-05-26T02:48:47.665Z,0
2019-05-26T02:49:47.746Z,0
2019-05-26T02:50:47.796Z,0
2019-05-26T02:51:47.866Z,0
2019-05-26T02:52:47.918Z,0
2019-05-26T02:53:48.033Z,0
2019-05-26T02:54:48.090Z,0
2019-05-26T02:55:48.151Z,0
2019-05-26T02:56:48.210Z,0
2019-05-26T02:57:48.272Z,0
2019-05-26T02:58:48.364Z,0
2019-05-26T02:59:48.402Z,0
2019-05-26T03:00:48.474Z,0
2019-05-26T03:02:01.897Z,0
2019-05-26T03:02:49.546Z,0
2019-05-26T03:03:48.661Z,0
2019-05-26T03:04:48.765Z,0
2019-05-26T03:05:48.850Z,0
2019-05-26T03:06:48.837Z,0
2019-05-26T03:07:48.909Z,0
2019-05-26T03:08:49.010Z,0
2019-05-26T03:09:49.129Z,0
2019-05-26T03:10:49.239Z,0
2019-05-26T03:11:49.293Z,0
2019-05-26T03:12:49.360Z,0
2019-05-26T03:13:49.432Z,0
2019-05-26T03:14:49.605Z,0
2019-05-26T03:15:49.658Z,0
2019-05-26T03:16:49.728Z,0
2019-05-26T03:17:49.813Z,0
2019-05-26T03:18:49.861Z,0
2019-05-26T03:19:49.980Z,0
2019-05-26T03:20:50.029Z,0
2019-05-26T03:21:50.090Z,0
2019-05-26T03:22:50.147Z,0
2019-05-26T03:23:50.201Z,0
2019-05-26T03:24:50.308Z,0
2019-05-26T03:25:50.363Z,0
2019-05-26T03:26:50.460Z,0
2019-05-26T03:27:50.521Z,0
2019-05-26T03:28:50.640Z,0
2019-05-26T03:29:50.725Z,0
2019-05-26T03:30:50.835Z,0
2019-05-26T03:31:50.887Z,0
2019-05-26T03:32:50.884Z,5.625
2019-05-26T03:33:50.891Z,5.625
2019-05-26T03:34:50.914Z,5.625
2019-05-26T03:35:50.948Z,5.625
2019-05-26T03:36:50.959Z,5.625
2019-05-26T03:37:50.957Z,5.625
2019-05-26T03:38:50.959Z,5.625
2019-05-26T03:39:50.952Z,5.625
2019-05-26T03:40:50.981Z,5.625
2019-05-26T03:41:50.997Z,5.625
2019-05-26T03:42:51.007Z,5.625
2019-05-26T03:43:51.013Z,5.625
2019-05-26T03:44:51.049Z,5.625
2019-05-26T03:45:51.083Z,11.25
2019-05-26T03:46:51.101Z,11.25
2019-05-26T03:47:51.143Z,11.25
2019-05-26T03:48:51.179Z,11.25
2019-05-26T03:49:51.188Z,11.25
2019-05-26T03:50:51.260Z,11.25
2019-05-26T03:51:51.289Z,11.25
2019-05-26T03:52:51.311Z,11.25
2019-05-26T03:53:51.367Z,16.875
2019-05-26T03:54:51.434Z,16.875
2019-05-26T03:55:51.557Z,16.875
2019-05-26T03:56:51.576Z,16.875
2019-05-26T03:57:51.605Z,16.875
2019-05-26T03:58:51.621Z,16.875
2019-05-26T03:59:51.648Z,22.5
2019-05-26T04:00:51.684Z,22.5
2019-05-26T04:01:52.842Z,22.5
2019-05-26T04:02:51.926Z,22.5
2019-05-26T04:03:52.003Z,22.5
2019-05-26T04:04:52.034Z,22.5
2019-05-26T04:05:52.070Z,22.5
2019-05-26T04:06:52.131Z,22.5
2019-05-26T04:07:52.142Z,22.5
2019-05-26T04:08:53.145Z,22.5
2019-05-26T04:10:03.479Z,22.5
2019-05-26T04:10:52.281Z,22.5
2019-05-26T04:11:52.310Z,22.5
2019-05-26T04:12:52.326Z,22.5
2019-05-26T04:13:52.391Z,28.125
2019-05-26T04:14:52.392Z,28.125
2019-05-26T04:15:52.395Z,28.125
2019-05-26T04:16:55.954Z,28.125
2019-05-26T04:17:52.452Z,28.125
2019-05-26T04:18:52.464Z,28.125
2019-05-26T04:19:52.484Z,28.125
2019-05-26T04:20:52.462Z,28.125
2019-05-26T04:21:52.524Z,28.125
2019-05-26T04:22:52.550Z,28.125
2019-05-26T04:23:52.574Z,28.125
2019-05-26T04:24:53.595Z,28.125
2019-05-26T04:25:52.604Z,28.125
2019-05-26T04:26:52.643Z,33.75
2019-05-26T04:27:52.656Z,33.75
2019-05-26T04:28:52.672Z,33.75
2019-05-26T04:29:52.725Z,33.75
2019-05-26T04:30:52.755Z,33.75
2019-05-26T04:31:52.789Z,33.75
2019-05-26T04:32:52.788Z,33.75
2019-05-26T04:33:52.815Z,33.75
2019-05-26T04:34:52.836Z,33.75
2019-05-26T04:35:52.883Z,39.375
2019-05-26T04:36:53.002Z,39.375
2019-05-26T04:37:53.107Z,39.375
2019-05-26T04:38:53.133Z,39.375
2019-05-26T04:39:53.194Z,39.375
2019-05-26T04:40:53.198Z,45
2019-05-26T04:41:53.254Z,45
2019-05-26T04:42:53.342Z,45
2019-05-26T04:43:53.394Z,45
2019-05-26T04:44:53.454Z,45
2019-05-26T04:45:53.448Z,45
2019-05-26T04:46:53.539Z,45
2019-05-26T04:47:53.651Z,45
2019-05-26T04:48:53.695Z,50.625
2019-05-26T04:49:53.728Z,50.625
2019-05-26T04:50:53.753Z,50.625
2019-05-26T04:51:53.789Z,50.625
2019-05-26T04:53:05.862Z,50.625
2019-05-26T04:53:53.828Z,50.625
2019-05-26T04:54:53.851Z,50.625
2019-05-26T04:55:53.867Z,50.625
2019-05-26T04:56:53.912Z,50.625
2019-05-26T04:57:53.963Z,50.625
2019-05-26T04:58:53.971Z,50.625
2019-05-26T04:59:54.009Z,56.25
2019-05-26T05:00:54.003Z,56.25
2019-05-26T05:01:54.008Z,56.25
2019-05-26T05:02:54.034Z,56.25
2019-05-26T05:03:54.047Z,56.25
2019-05-26T05:04:54.068Z,61.875
2019-05-26T05:05:54.082Z,61.875
2019-05-26T05:06:54.093Z,61.875
2019-05-26T05:07:54.125Z,61.875
2019-05-26T05:08:54.133Z,61.875
2019-05-26T05:09:54.140Z,61.875
2019-05-26T05:10:54.169Z,61.875
2019-05-26T05:11:54.179Z,61.875
2019-05-26T05:12:54.205Z,61.875
2019-05-26T05:13:54.218Z,67.5
2019-05-26T05:14:54.228Z,67.5
2019-05-26T05:15:54.245Z,67.5
2019-05-26T05:16:54.298Z,73.125
2019-05-26T05:17:54.362Z,73.125
2019-05-26T05:18:54.420Z,73.125
2019-05-26T05:19:54.471Z,73.125
2019-05-26T05:20:54.477Z,73.125
2019-05-26T05:21:54.538Z,78.75
2019-05-26T05:22:54.575Z,78.75
2019-05-26T05:23:54.685Z,78.75
2019-05-26T05:24:54.699Z,78.75
2019-05-26T05:25:54.717Z,78.75
2019-05-26T05:26:54.728Z,78.75
2019-05-26T05:27:54.838Z,84.375
2019-05-26T05:28:54.923Z,84.375
2019-05-26T05:29:54.954Z,84.375
2019-05-26T05:30:54.991Z,84.375
2019-05-26T05:31:55.036Z,90
2019-05-26T05:32:55.084Z,90
2019-05-26T05:33:55.170Z,90
2019-05-26T05:34:55.189Z,90
2019-05-26T05:35:55.240Z,90
2019-05-26T05:36:55.279Z,95.625
2019-05-26T05:37:55.316Z,95.625
2019-05-26T05:38:55.388Z,95.625
2019-05-26T05:39:55.405Z,95.625
2019-05-26T05:40:59.741Z,101.25
2019-05-26T05:41:55.433Z,101.25
2019-05-26T05:42:55.453Z,101.25
2019-05-26T05:43:55.491Z,101.25
2019-05-26T05:44:55.497Z,101.25
2019-05-26T05:45:55.525Z,101.25
2019-05-26T05:46:55.538Z,101.25
2019-05-26T05:47:55.554Z,101.25
2019-05-26T05:48:55.591Z,101.25
2019-05-26T05:49:55.617Z,106.875
2019-05-26T05:50:55.631Z,106.875
2019-05-26T05:51:55.669Z,106.875
2019-05-26T05:52:55.676Z,106.875
2019-05-26T05:53:55.719Z,112.5
2019-05-26T05:54:55.750Z,112.5
2019-05-26T05:55:55.781Z,112.5
2019-05-26T05:56:55.945Z,112.5
2019-05-26T05:57:55.772Z,112.5
2019-05-26T05:58:55.834Z,112.5
2019-05-26T05:59:55.838Z,112.5
2019-05-26T06:00:55.849Z,112.5
2019-05-26T06:01:55.872Z,112.5
2019-05-26T06:02:55.914Z,112.5
2019-05-26T06:03:55.985Z,112.5
2019-05-26T06:04:56.109Z,112.5
2019-05-26T06:05:56.100Z,118.125
2019-05-26T06:06:56.212Z,118.125
2019-05-26T06:07:56.281Z,118.125
2019-05-26T06:08:56.396Z,118.125
2019-05-26T06:09:56.464Z,118.125
2019-05-26T06:10:56.520Z,118.125
2019-05-26T06:11:57.141Z,123.75
2019-05-26T06:12:56.567Z,123.75
2019-05-26T06:13:56.589Z,123.75
2019-05-26T06:14:56.684Z,123.75
2019-05-26T06:15:56.720Z,123.75
2019-05-26T06:16:56.743Z,123.75
2019-05-26T06:17:56.789Z,118.125
2019-05-26T06:18:56.832Z,118.125
2019-05-26T06:19:56.876Z,118.125
2019-05-26T06:20:56.885Z,118.125
2019-05-26T06:21:56.953Z,118.125
2019-05-26T06:22:57.015Z,118.125
2019-05-26T06:23:57.092Z,118.125
2019-05-26T06:24:57.171Z,118.125
2019-05-26T06:25:57.242Z,118.125
2019-05-26T06:26:57.277Z,123.75
2019-05-26T06:27:57.310Z,123.75
2019-05-26T06:28:57.349Z,123.75
2019-05-26T06:29:59.102Z,123.75
2019-05-26T06:30:57.401Z,123.75
2019-05-26T06:31:57.957Z,123.75
2019-05-26T06:32:57.453Z,123.75
2019-05-26T06:33:57.469Z,118.125
2019-05-26T06:34:57.546Z,118.125
2019-05-26T06:35:57.593Z,118.125
2019-05-26T06:36:57.617Z,123.75
2019-05-26T06:37:57.645Z,123.75
2019-05-26T06:38:57.654Z,123.75
2019-05-26T06:39:57.675Z,123.75
2019-05-26T06:40:57.710Z,129.375
2019-05-26T06:41:57.750Z,129.375
2019-05-26T06:42:57.790Z,135
2019-05-26T06:43:57.859Z,140.625
2019-05-26T06:44:57.864Z,140.625
2019-05-26T06:45:58.012Z,146.25
2019-05-26T06:46:58.042Z,146.25
2019-05-26T06:47:58.070Z,151.875
2019-05-26T06:48:58.114Z,146.25
2019-05-26T06:49:58.125Z,146.25
2019-05-26T06:50:58.171Z,151.875
2019-05-26T06:51:58.184Z,151.875
2019-05-26T06:52:58.208Z,151.875
2019-05-26T06:53:58.225Z,151.875
2019-05-26T06:54:58.258Z,151.875
2019-05-26T06:55:58.296Z,151.875
2019-05-26T06:56:58.330Z,151.875
2019-05-26T06:57:58.330Z,151.875
2019-05-26T06:59:02.418Z,151.875
2019-05-26T06:59:58.508Z,157.5
2019-05-26T07:00:58.562Z,157.5
2019-05-26T07:01:58.642Z,157.5
2019-05-26T07:02:58.680Z,163.125
2019-05-26T07:03:58.693Z,168.75
2019-05-26T07:04:58.705Z,174.375
2019-05-26T07:05:58.747Z,174.375
2019-05-26T07:06:58.768Z,174.375
2019-05-26T07:07:58.817Z,174.375
2019-05-26T07:08:58.897Z,180
2019-05-26T07:09:59.203Z,174.375
2019-05-26T07:10:59.139Z,163.125
2019-05-26T07:12:00.499Z,163.125
2019-05-26T07:12:59.240Z,168.75
2019-05-26T07:13:59.304Z,168.75
2019-05-26T07:14:59.340Z,168.75
2019-05-26T07:15:59.436Z,168.75
2019-05-26T07:16:59.389Z,163.125
2019-05-26T07:17:59.434Z,163.125
2019-05-26T07:18:59.495Z,163.125
2019-05-26T07:19:59.602Z,163.125
2019-05-26T07:20:59.727Z,157.5
2019-05-26T07:21:59.782Z,163.125
2019-05-26T07:22:59.818Z,163.125
2019-05-26T07:23:59.972Z,180
2019-05-26T07:24:59.977Z,315
2019-05-26T07:26:00.000Z,421.875
2019-05-26T07:27:00.181Z,444.375
2019-05-26T07:28:00.216Z,489.375
2019-05-26T07:29:00.205Z,427.5
2019-05-26T07:30:00.348Z,489.375
2019-05-26T07:31:00.458Z,483.75
2019-05-26T07:32:00.647Z,590.625
2019-05-26T07:33:00.690Z,641.25
2019-05-26T07:34:00.781Z,562.5
2019-05-26T07:35:00.926Z,624.375
2019-05-26T07:36:00.946Z,607.5
2019-05-26T07:37:01.114Z,562.5
2019-05-26T07:38:01.159Z,568.125
2019-05-26T07:39:01.193Z,556.875
2019-05-26T07:40:01.223Z,545.625
2019-05-26T07:41:01.243Z,601.875
2019-05-26T07:42:09.743Z,787.5
2019-05-26T07:43:01.399Z,973.125
2019-05-26T07:44:01.500Z,1018.125
2019-05-26T07:45:01.665Z,1080
2019-05-26T07:46:01.816Z,1046.25
2019-05-26T07:47:01.934Z,1023.75
2019-05-26T07:48:02.090Z,1136.25
2019-05-26T07:49:02.027Z,1181.25
2019-05-26T07:50:02.888Z,1192.5
2019-05-26T07:51:02.358Z,1198.125
2019-05-26T07:52:02.503Z,1220.625
2019-05-26T07:53:02.616Z,1102.5
2019-05-26T07:54:02.628Z,1130.625
2019-05-26T07:55:02.754Z,1085.625
2019-05-26T07:56:02.878Z,1147.5
2019-05-26T07:57:03.028Z,1125
2019-05-26T07:58:03.234Z,1113.75
2019-05-26T07:59:03.190Z,1108.125
2019-05-26T08:00:04.316Z,1108.125
2019-05-26T08:01:03.463Z,1136.25
2019-05-26T08:02:03.601Z,1141.875
2019-05-26T08:03:03.773Z,1153.125
2019-05-26T08:04:03.717Z,1203.75
2019-05-26T08:05:03.893Z,1231.875
2019-05-26T08:06:03.850Z,1080
2019-05-26T08:07:03.953Z,1231.875
2019-05-26T08:08:12.451Z,1265.625
2019-05-26T08:09:05.170Z,1310.625
2019-05-26T08:10:04.272Z,1153.125
2019-05-26T08:11:04.343Z,652.5
2019-05-26T08:12:04.637Z,562.5
2019-05-26T08:13:05.450Z,556.875
2019-05-26T08:14:04.464Z,354.375
2019-05-26T08:15:04.607Z,298.125
2019-05-26T08:16:04.761Z,281.25
2019-05-26T08:17:04.897Z,275.625
2019-05-26T08:18:05.198Z,270
2019-05-26T08:19:05.082Z,270
2019-05-26T08:20:05.287Z,275.625
2019-05-26T08:21:05.341Z,275.625
2019-05-26T08:22:05.496Z,275.625
2019-05-26T08:23:05.607Z,275.625
2019-05-26T08:24:09.418Z,281.25
2019-05-26T08:25:05.658Z,286.875
2019-05-26T08:26:05.758Z,292.5
2019-05-26T08:27:05.905Z,298.125
2019-05-26T08:28:06.038Z,309.375
2019-05-26T08:29:05.982Z,331.875
2019-05-26T08:30:06.215Z,348.75
2019-05-26T08:31:06.120Z,343.125
2019-05-26T08:32:06.148Z,365.625
2019-05-26T08:33:06.242Z,331.875
2019-05-26T08:34:06.186Z,331.875
2019-05-26T08:35:06.213Z,337.5
2019-05-26T08:36:06.380Z,326.25
2019-05-26T08:37:06.360Z,303.75
2019-05-26T08:38:06.471Z,286.875
2019-05-26T08:39:06.450Z,275.625
2019-05-26T08:40:06.605Z,275.625
2019-05-26T08:41:06.544Z,275.625
2019-05-26T08:42:06.998Z,275.625
2019-05-26T08:43:06.951Z,281.25
2019-05-26T08:44:06.961Z,286.875
2019-05-26T08:45:07.394Z,292.5
2019-05-26T08:46:07.001Z,298.125
2019-05-26T08:47:07.143Z,309.375
2019-05-26T08:48:07.208Z,309.375
2019-05-26T08:49:07.196Z,309.375
2019-05-26T08:50:07.262Z,286.875
2019-05-26T08:51:07.292Z,270
2019-05-26T08:52:07.917Z,264.375
2019-05-26T08:53:07.450Z,264.375
2019-05-26T08:54:07.641Z,258.75
2019-05-26T08:55:07.624Z,258.75
2019-05-26T08:56:07.714Z,247.5
2019-05-26T08:57:07.773Z,219.375
2019-05-26T08:58:07.883Z,191.25
2019-05-26T08:59:07.965Z,174.375
2019-05-26T09:00:07.971Z,157.5
2019-05-26T09:01:08.019Z,146.25
2019-05-26T09:02:08.081Z,135
2019-05-26T09:03:08.094Z,157.5
2019-05-26T09:04:08.292Z,180
2019-05-26T09:05:08.163Z,185.625
2019-05-26T09:06:08.273Z,185.625
2019-05-26T09:07:08.445Z,185.625
2019-05-26T09:08:08.432Z,191.25
2019-05-26T09:09:08.410Z,196.875
2019-05-26T09:10:08.515Z,208.125
2019-05-26T09:11:08.645Z,219.375
2019-05-26T09:12:08.673Z,213.75
2019-05-26T09:13:08.751Z,213.75
2019-05-26T09:14:08.869Z,208.125
2019-05-26T09:15:08.920Z,208.125
2019-05-26T09:16:08.974Z,202.5
2019-05-26T09:17:09.081Z,185.625
2019-05-26T09:18:09.112Z,163.125
2019-05-26T09:19:09.128Z,151.875
2019-05-26T09:20:11.312Z,140.625
2019-05-26T09:21:09.482Z,135
2019-05-26T09:22:09.364Z,140.625
2019-05-26T09:23:09.408Z,146.25
2019-05-26T09:24:09.446Z,146.25
2019-05-26T09:25:09.492Z,140.625
2019-05-26T09:26:09.572Z,129.375
2019-05-26T09:27:09.510Z,118.125
2019-05-26T09:28:09.546Z,106.875
2019-05-26T09:29:09.560Z,101.25
2019-05-26T09:30:09.578Z,101.25
2019-05-26T09:31:09.631Z,101.25
2019-05-26T09:32:09.662Z,106.875
2019-05-26T09:33:09.689Z,118.125
2019-05-26T09:34:09.702Z,129.375
2019-05-26T09:35:09.849Z,140.625
2019-05-26T09:36:09.904Z,157.5
2019-05-26T09:37:09.931Z,168.75
2019-05-26T09:38:09.957Z,174.375
2019-05-26T09:39:09.999Z,185.625
2019-05-26T09:40:09.977Z,191.25
2019-05-26T09:41:10.083Z,208.125
2019-05-26T09:42:10.126Z,225
2019-05-26T09:43:15.907Z,236.25
2019-05-26T09:44:10.175Z,247.5
2019-05-26T09:45:10.215Z,247.5
2019-05-26T09:46:10.313Z,247.5
2019-05-26T09:47:10.358Z,258.75
2019-05-26T09:48:10.393Z,264.375
2019-05-26T09:49:10.451Z,264.375
2019-05-26T09:50:10.511Z,264.375
2019-05-26T09:52:23.535Z,258.75
2019-05-26T09:53:23.059Z,258.75
2019-05-26T09:54:23.157Z,264.375
2019-05-26T09:55:23.175Z,258.75
2019-05-26T09:56:23.210Z,258.75
2019-05-26T09:57:23.261Z,264.375
2019-05-26T09:58:23.278Z,275.625
2019-05-26T09:59:23.282Z,298.125
2019-05-26T10:00:23.451Z,320.625
2019-05-26T10:01:23.345Z,337.5
2019-05-26T10:02:23.396Z,331.875
2019-05-26T10:03:23.416Z,326.25
2019-05-26T10:04:23.461Z,331.875
2019-05-26T10:05:23.537Z,331.875
2019-05-26T10:06:23.608Z,331.875
2019-05-26T10:07:23.660Z,326.25
2019-05-26T10:08:23.713Z,326.25
2019-05-26T10:09:23.775Z,315
2019-05-26T10:10:23.808Z,303.75
2019-05-26T10:11:23.900Z,298.125
2019-05-26T10:12:23.960Z,298.125
2019-05-26T10:13:31.569Z,292.5
2019-05-26T10:14:24.027Z,270
2019-05-26T10:15:24.036Z,264.375
2019-05-26T10:16:24.142Z,264.375
2019-05-26T10:17:24.148Z,258.75
2019-05-26T10:18:24.186Z,264.375
2019-05-26T10:19:24.193Z,275.625
2019-05-26T10:20:24.224Z,286.875
2019-05-26T10:21:24.225Z,298.125
2019-05-26T10:22:24.258Z,309.375
2019-05-26T10:23:24.260Z,326.25
2019-05-26T10:24:24.259Z,337.5
2019-05-26T10:25:24.420Z,320.625
2019-05-26T10:26:24.451Z,303.75
2019-05-26T10:27:24.629Z,303.75
2019-05-26T10:28:24.634Z,309.375
2019-05-26T10:29:24.637Z,303.75
2019-05-26T10:30:24.657Z,298.125
2019-05-26T10:31:24.659Z,298.125
2019-05-26T10:32:24.861Z,320.625
2019-05-26T10:33:24.744Z,320.625
2019-05-26T10:34:24.759Z,326.25
2019-05-26T10:35:24.786Z,360
2019-05-26T10:36:24.793Z,337.5
2019-05-26T10:37:24.809Z,303.75
2019-05-26T10:38:24.865Z,264.375
2019-05-26T10:39:24.951Z,253.125
2019-05-26T10:40:24.955Z,247.5
2019-05-26T10:41:24.967Z,241.875
2019-05-26T10:42:24.987Z,241.875
2019-05-26T10:43:25.081Z,225
2019-05-26T10:44:25.113Z,230.625
2019-05-26T10:45:25.118Z,253.125
2019-05-26T10:46:25.147Z,286.875
2019-05-26T10:47:25.159Z,309.375
2019-05-26T10:48:25.198Z,303.75
2019-05-26T10:49:25.228Z,303.75
2019-05-26T10:50:25.233Z,303.75
2019-05-26T10:51:25.241Z,303.75
2019-05-26T10:52:25.247Z,309.375
2019-05-26T10:53:25.282Z,315
2019-05-26T10:54:25.312Z,309.375
2019-05-26T10:55:25.335Z,298.125
2019-05-26T10:56:25.402Z,292.5
2019-05-26T10:57:25.430Z,292.5
2019-05-26T10:58:25.523Z,292.5
2019-05-26T10:59:25.504Z,286.875
2019-05-26T11:00:25.495Z,270
2019-05-26T11:01:25.501Z,281.25
2019-05-26T11:02:25.539Z,315
2019-05-26T11:03:25.588Z,354.375
2019-05-26T11:04:25.669Z,365.625
2019-05-26T11:05:25.693Z,365.625
2019-05-26T11:06:25.749Z,365.625
2019-05-26T11:07:26.930Z,360
2019-05-26T11:08:25.806Z,360
2019-05-26T11:09:25.862Z,337.5
2019-05-26T11:10:25.889Z,320.625
2019-05-26T11:11:25.936Z,303.75
2019-05-26T11:12:25.953Z,309.375
2019-05-26T11:13:25.971Z,320.625
2019-05-26T11:14:26.066Z,315
2019-05-26T11:15:26.229Z,303.75
2019-05-26T11:16:26.295Z,286.875
2019-05-26T11:17:26.311Z,275.625
2019-05-26T11:18:26.380Z,270
2019-05-26T11:19:26.460Z,264.375
2019-05-26T11:20:26.635Z,258.75
2019-05-26T11:21:26.506Z,258.75
2019-05-26T11:22:26.575Z,253.125
2019-05-26T11:23:26.660Z,264.375
2019-05-26T11:24:26.781Z,264.375
2019-05-26T11:25:26.845Z,270
2019-05-26T11:26:26.874Z,270
2019-05-26T11:27:26.911Z,275.625
2019-05-26T11:28:26.966Z,275.625
2019-05-26T11:29:27.069Z,275.625
2019-05-26T11:30:27.131Z,281.25
2019-05-26T11:31:27.140Z,292.5
2019-05-26T11:32:27.261Z,298.125
2019-05-26T11:33:27.325Z,303.75
2019-05-26T11:34:27.483Z,303.75
2019-05-26T11:35:28.496Z,309.375
2019-05-26T11:36:27.642Z,326.25
2019-05-26T11:37:27.576Z,354.375
2019-05-26T11:38:27.682Z,399.375
2019-05-26T11:39:27.705Z,427.5
2019-05-26T11:40:27.800Z,427.5
2019-05-26T11:41:27.865Z,433.125
2019-05-26T11:42:27.935Z,433.125
2019-05-26T11:43:28.003Z,421.875
2019-05-26T11:44:28.077Z,410.625
2019-05-26T11:45:28.215Z,450
2019-05-26T11:46:28.237Z,506.25
2019-05-26T11:47:28.230Z,590.625
2019-05-26T11:48:28.229Z,641.25
2019-05-26T11:49:28.265Z,675
2019-05-26T11:50:28.346Z,703.125
2019-05-26T11:51:28.391Z,630
2019-05-26T11:52:28.430Z,630
2019-05-26T11:53:28.486Z,669.375
2019-05-26T11:54:28.569Z,658.125
2019-05-26T11:55:28.657Z,686.25
2019-05-26T11:56:28.749Z,691.875
2019-05-26T11:57:28.860Z,686.25
2019-05-26T11:58:28.906Z,663.75
2019-05-26T11:59:28.991Z,675
2019-05-26T12:00:29.088Z,787.5
2019-05-26T12:01:29.160Z,736.875
2019-05-26T12:02:29.252Z,663.75
2019-05-26T12:03:29.304Z,641.25
2019-05-26T12:04:29.356Z,849.375
2019-05-26T12:05:29.408Z,781.875
2019-05-26T12:06:29.471Z,765
2019-05-26T12:07:29.559Z,658.125
2019-05-26T12:08:29.583Z,652.5
2019-05-26T12:09:29.768Z,641.25
2019-05-26T12:10:29.823Z,534.375
2019-05-26T12:11:29.934Z,438.75
2019-05-26T12:12:30.009Z,365.625
2019-05-26T12:13:30.055Z,315
2019-05-26T12:14:34.597Z,286.875
2019-05-26T12:15:30.191Z,270
2019-05-26T12:16:30.259Z,275.625
2019-05-26T12:17:30.335Z,281.25
2019-05-26T12:18:30.399Z,309.375
2019-05-26T12:19:30.465Z,337.5
2019-05-26T12:20:30.515Z,365.625
2019-05-26T12:21:30.606Z,427.5
2019-05-26T12:22:30.702Z,495
2019-05-26T12:23:30.792Z,596.25
2019-05-26T12:24:30.869Z,731.25
2019-05-26T12:25:30.889Z,928.125
2019-05-26T12:26:31.018Z,765
2019-05-26T12:27:31.040Z,742.5
2019-05-26T12:28:31.058Z,776.25
2019-05-26T12:29:31.096Z,669.375
2019-05-26T12:30:31.163Z,624.375
2019-05-26T12:31:31.347Z,585
2019-05-26T12:32:31.444Z,601.875
2019-05-26T12:33:31.517Z,596.25
2019-05-26T12:34:31.607Z,630
2019-05-26T12:35:31.638Z,703.125
2019-05-26T12:36:31.713Z,753.75
2019-05-26T12:37:31.766Z,658.125
2019-05-26T12:38:31.817Z,697.5
2019-05-26T12:39:31.855Z,607.5
2019-05-26T12:40:31.958Z,556.875
2019-05-26T12:41:33.923Z,551.25
2019-05-26T12:42:32.023Z,517.5
2019-05-26T12:43:32.058Z,500.625
2019-05-26T12:44:32.079Z,585
2019-05-26T12:45:32.143Z,641.25
2019-05-26T12:46:32.196Z,489.375
2019-05-26T12:47:32.339Z,416.25
2019-05-26T12:48:32.387Z,365.625
2019-05-26T12:49:32.568Z,348.75
2019-05-26T12:50:32.586Z,326.25
2019-05-26T12:51:32.638Z,303.75
2019-05-26T12:52:32.684Z,298.125
2019-05-26T12:53:32.737Z,286.875
2019-05-26T12:54:32.750Z,292.5
2019-05-26T12:55:32.752Z,286.875
2019-05-26T12:56:32.790Z,298.125
2019-05-26T12:57:32.910Z,315
2019-05-26T12:58:32.979Z,320.625
2019-05-26T12:59:33.126Z,315
2019-05-26T13:00:47.318Z,292.5
2019-05-26T13:01:33.244Z,286.875
2019-05-26T13:02:33.134Z,286.875
2019-05-26T13:03:46.211Z,286.875
2019-05-26T13:04:33.196Z,281.25
2019-05-26T13:05:33.752Z,298.125